• Join FlightAware (Why Join?)
  • Login
  • US Flag 
01:26PM EDT


 

Airport Tracker/Info


-or-


 

Live Flight TrackerFlight Track Log ✈ FSR411 ✈ 25-Sep-2013 ✈ KCMI - KDET

Flight Track Log - Related Links

Times and Time Zones

All times are in EDT time to prevent confusion due to time zone crossing. See the FSR411 flight status page for this flight to view local times or setup timezone preferences in your user account.

Time Position Orientation Groundspeed Altitude Reporting Facility
EDT Latitude Longitude Course Direction KTS MPH feet Rate Location/Type
06:41AM 40.1028 -88.2189 58° Northeast 213 245 5,500  Level Chicago Center
06:42AM 40.1267 -88.1450 67° East 237 273 8,700 3,120 Climbing Chicago Center
06:43AM 40.2006 -87.9457 57° Northeast  Level Estimated
06:43AM 40.1553 -88.0481 69° East 276 318 11,800  Level Chicago Center
06:44AM 40.2543 -87.8347 58° Northeast  Level Estimated
06:44AM 40.1942 -87.9200 68° East 343 395 15,000  Level Chicago Center
06:45AM 40.3079 -87.7235 58° Northeast  Level Estimated
06:45AM 40.2356 -87.7847 68° East 389 448 18,500  Level Chicago Center
06:46AM 40.3615 -87.6121 58° Northeast  Level Estimated
06:46AM 40.2783 -87.6444 68° East 412 474 22,000  Level Chicago Center
06:47AM 40.3219 -87.4975 69° East 430 495 23,100 1,620 Climbing Chicago Center
06:48AM 40.3661 -87.3497 69° East 448 516 25,300 1,800 Climbing Chicago Center
06:49AM 40.4125 -87.1919 69° East 458 527 26,800 840 Climbing Chicago Center
06:50AM 40.4606 -87.0281 69° East 471 542 27,000 60 Climbing Chicago Center
06:51AM 40.5097 -86.8600 69° East 486 559 27,000  Level Chicago Center
06:52AM 40.5575 -86.6925 69° East 489 563 27,000  Level Chicago Center
06:53AM 40.6064 -86.5264 69° East 488 562 27,000  Level Chicago Center
06:54AM 40.6542 -86.3600 69° East 485 558 27,000  Level Chicago Center
06:55AM 40.7017 -86.1928 69° East 484 557 27,000  Level Chicago Center
06:56AM 40.7486 -86.0261 70° East 487 560 27,000  Level Chicago Center
06:57AM 40.7956 -85.8589 70° East 489 563 27,000 -540 Level Chicago Center
06:58AM 40.8506 -85.6608 70° East 483 556 26,000 -1,020 Descending Chicago Center
06:59AM 40.8942 -85.5017 70° East 467 537 25,000 -1,380 Descending Chicago Center
07:00AM 40.9369 -85.3436 70° East 459 528 23,300 -1,860 Descending Chicago Center
07:01AM 40.9789 -85.1847 71° East 461 531 21,300 -2,040 Descending Chicago Center
07:02AM 41.0244 -85.0389 67° East 443 510 19,300 -1,860 Descending Chicago Center
07:03AM 41.0708 -84.8942 67° East 434 499 17,600 -1,440 Descending Chicago Center
07:04AM 41.1139 -84.7547 68° East 419 482 16,400 -1,200 Descending Chicago Center
07:05AM 41.1567 -84.6153 68° East 413 475 15,200 -1,200 Descending Chicago Center
07:06AM 41.1989 -84.4786 68° East 406 467 14,000 -1,200 Descending Chicago Center
07:07AM 41.2386 -84.3469 68° East 393 452 12,800 -1,200 Descending Chicago Center
07:08AM 41.2789 -84.2181 67° East 382 440 11,600 -1,200 Descending Chicago Center
07:09AM 41.3175 -84.0906 68° East 377 434 10,400 -840 Descending Chicago Center
07:10AM 41.3547 -83.9656 68° East 372 428 9,900 -300 Descending Chicago Center
07:11AM 41.4006 -83.8156 68° East 367 422 9,900  Level Chicago Center
07:12AM 41.4378 -83.6794 70° East 374 430 9,900  Level Cleveland Center
07:13AM 41.4822 -83.5536 65° Northeast 379 436 9,900  Level Cleveland Center
07:14AM 41.5322 -83.4339 61° Northeast 372 428 9,900 120 Level Cleveland Center
07:15AM 41.5633 -83.3583 61° Northeast 355 409 10,100  Climbing Cleveland Center
07:15AM 41.5772 -83.3181 65° Northeast 358 412 9,900  Descending Cleveland Center
07:15AM 41.5847 -83.2997 61° Northeast 352 405 10,100  Climbing Cleveland Center
07:16AM 41.6222 -83.2033 62° Northeast 353 406 9,900  Descending Cleveland Center
07:16AM 41.6367 -83.1700 60° Northeast 353 406 10,100 60 Climbing Cleveland Center
07:17AM 41.6675 -83.0886 63° Northeast 351 404 10,000  Descending Cleveland Center
07:17AM 41.6808 -83.0589 59° Northeast 337 388 10,100  Climbing Cleveland Center
07:18AM 41.7194 -82.9681 60° Northeast 314 361 10,000  Descending Cleveland Center
07:18AM 41.7281 -82.9589 38° Northeast 297 342 10,100 -120 Climbing Cleveland Center
07:19AM 41.7719 -82.8878 50° Northeast 293 337 9,900 -300 Descending Cleveland Center
07:19AM 41.7806 -82.8764 45° Northeast 291 335 9,800 -1,020 Descending Cleveland Center
07:20AM 41.8239 -82.8031 52° Northeast 292 336 8,900 -1,020 Descending Cleveland Center
07:20AM 41.8331 -82.7881 51° Northeast 291 335 8,800 -1,020 Descending Cleveland Center
07:21AM 41.8828 -82.7383 37° Northeast 301 346 7,900 -1,140 Descending Cleveland Center
07:21AM 41.8972 -82.7406 353° North 286 329 7,700 -1,200 Descending Cleveland Center
07:22AM 41.9575 -82.7689 341° North 291 335 6,700 -1,320 Descending Cleveland Center
07:22AM 41.9758 -82.7817 333° Northwest 290 334 6,400 -1,260 Descending Cleveland Center
07:23AM 42.0311 -82.8122 338° Northwest 290 334 5,400 -1,380 Descending Cleveland Center
07:23AM 42.0525 -82.8228 340° North 288 331 5,000 -1,380 Descending Cleveland Center
07:24AM 42.1050 -82.8492 340° North 286 329 4,000 -1,200 Descending Cleveland Center
07:24AM 42.1250 -82.8603 338° Northwest 284 327 3,800 -900 Descending Cleveland Center
07:25AM 42.1881 -82.8936 339° North 273 314 3,100 -720 Descending Cleveland Center
07:25AM 42.1956 -82.8981 336° Northwest 249 287 3,100 -240 Level Cleveland Center
07:26AM 42.2450 -82.9244 338° Northwest 234 269 2,900 -360 Descending Cleveland Center
07:26AM 42.2581 -82.9317 338° Northwest 206 237 2,700 -540 Descending Cleveland Center
07:27AM 42.3000 -82.9447 347° North 210 242 2,400 -300 Descending Cleveland Center
07:27AM 42.3133 -82.9503 343° North 197 227 2,400 -300 Level Cleveland Center
07:28AM 42.3531 -82.9569 353° North 202 232 2,100 -540 Descending Cleveland Center
07:29AM 42.3647 -82.9631 339° North 168 193 1,900 -900 Descending Cleveland Center
07:29AM 42.3858 -82.9869 320° Northwest 166 191 1,200 -900 Descending Cleveland Center
07:30AM 42.3958 -82.9956 328° Northwest 132 152 1,000 -300 Descending Cleveland Center
07:30AM 42.4228 -83.0247 321° Northwest 157 181 900 -240 Descending Cleveland Center
07:30AM 42.4075 -83.0056 137° Southeast 130 150 800 -3,000 Descending Cleveland Center